Terminal Aerodrome Forecast
Issued by NWS

Home | Current Version | Previous Version | Text Only | Print | Product List | Glossary On
Versions: 1 2 3 4 5 6 7 8 9 10 11 12 13
000
FTUS42 KTBW 052330
TAFPIE
TAF
KPIE 052330Z 0600/0624 09011KT P6SM FEW050 BKN250
     FM060300 08008KT P6SM SCT040 BKN250
     FM061700 36004KT P6SM VCTS FEW025CB SCT250
     FM062100 31009KT P6SM SCT030 SCT250=

USA.gov is the U.S. government's official web portal to all federal, state and local government web resources and services.